createdAt,value
2019-04-05T00:02:12.757Z,66.70
2019-04-05T00:04:42.124Z,66.40
2019-04-05T00:07:11.555Z,66.70
2019-04-05T00:09:42.129Z,66.30
2019-04-05T00:12:11.629Z,66.30
2019-04-05T00:14:40.970Z,66.70
2019-04-05T00:17:10.415Z,67.10
2019-04-05T00:19:39.828Z,67.10
2019-04-05T00:22:09.260Z,67.50
2019-04-05T00:24:38.648Z,68.10
2019-04-05T00:27:08.113Z,67.80
2019-04-05T00:29:37.563Z,68.10
2019-04-05T00:32:06.988Z,68.10
2019-04-05T00:34:38.720Z,68.00
2019-04-05T00:37:08.137Z,68.00
2019-04-05T00:39:37.494Z,67.10
2019-04-05T00:42:07.857Z,66.30
2019-04-05T00:44:37.298Z,66.10
2019-04-05T00:47:07.928Z,66.30
2019-04-05T00:49:37.432Z,67.10
2019-04-05T00:52:07.837Z,67.30
2019-04-05T00:54:37.290Z,67.00
2019-04-05T00:57:06.761Z,67.70
2019-04-05T00:59:36.224Z,68.30
2019-04-05T01:02:07.576Z,68.30
2019-04-05T01:04:39.590Z,68.80
2019-04-05T01:07:09.143Z,68.20
2019-04-05T01:09:38.717Z,68.00
2019-04-05T01:12:08.128Z,68.40
2019-04-05T01:14:37.733Z,68.60
2019-04-05T01:17:07.165Z,68.10
2019-04-05T01:19:40.013Z,67.50
2019-04-05T01:22:12.498Z,67.10
2019-04-05T01:24:41.957Z,66.30
2019-04-05T01:27:12.021Z,65.70
2019-04-05T01:29:42.269Z,65.20
2019-04-05T01:32:11.729Z,65.70
2019-04-05T01:34:43.202Z,65.40
2019-04-05T01:37:13.668Z,65.60
2019-04-05T01:39:43.020Z,66.00
2019-04-05T01:42:12.523Z,66.00
2019-04-05T01:44:41.957Z,66.00
2019-04-05T01:47:11.442Z,67.10
2019-04-05T01:49:42.469Z,66.80
2019-04-05T01:52:12.060Z,65.90
2019-04-05T01:54:41.480Z,65.90
2019-04-05T01:57:10.992Z,65.70
2019-04-05T01:59:40.356Z,66.30
2019-04-05T02:02:09.752Z,66.40
2019-04-05T02:04:39.104Z,66.70
2019-04-05T02:07:09.100Z,67.50
2019-04-05T02:09:39.024Z,67.50
2019-04-05T02:12:08.654Z,68.50
2019-04-05T02:14:39.543Z,68.30
2019-04-05T02:17:09.121Z,68.60
2019-04-05T02:19:39.795Z,69.30
2019-04-05T02:22:09.208Z,69.80
2019-04-05T02:24:38.706Z,70.40
2019-04-05T02:27:08.246Z,70.90
2019-04-05T02:29:37.742Z,70.90
2019-04-05T02:32:07.233Z,70.50
2019-04-05T02:34:36.633Z,70.40
2019-04-05T02:37:07.284Z,70.60
2019-04-05T02:39:38.730Z,71.10
2019-04-05T02:42:10.186Z,71.80
2019-04-05T02:44:40.869Z,72.10
2019-04-05T02:47:10.646Z,72.10
2019-04-05T02:49:41.741Z,72.20
2019-04-05T02:52:12.219Z,71.70
2019-04-05T02:54:44.593Z,72.40
2019-04-05T02:57:14.618Z,72.20
2019-04-05T02:59:45.287Z,72.10
2019-04-05T03:02:16.441Z,72.20
2019-04-05T03:04:46.803Z,72.40
2019-04-05T03:07:22.485Z,72.20
2019-04-05T03:09:51.991Z,72.60
2019-04-05T03:12:22.277Z,73.00
2019-04-05T03:14:52.790Z,73.00
2019-04-05T03:17:23.753Z,73.30
2019-04-05T03:19:59.951Z,73.60
2019-04-05T03:22:30.531Z,73.90
2019-04-05T03:25:01.407Z,74.10
2019-04-05T03:27:34.174Z,73.80
2019-04-05T03:30:06.418Z,73.40
2019-04-05T03:32:35.929Z,73.20
2019-04-05T03:35:06.872Z,73.10
2019-04-05T03:37:36.273Z,73.00
2019-04-05T03:40:07.855Z,72.70
2019-04-05T03:42:42.326Z,73.00
2019-04-05T03:45:14.430Z,73.30
2019-04-05T03:47:43.932Z,73.00
2019-04-05T03:50:13.447Z,72.70
2019-04-05T03:52:42.949Z,72.80
2019-04-05T03:55:12.550Z,72.70
2019-04-05T03:57:43.520Z,72.90
2019-04-05T04:00:13.110Z,72.90
2019-04-05T04:02:42.636Z,73.00
2019-04-05T04:05:15.573Z,73.50
2019-04-05T04:07:45.050Z,73.70
2019-04-05T04:10:17.580Z,73.80
2019-04-05T04:12:47.006Z,74.10
2019-04-05T04:15:16.697Z,74.30
2019-04-05T04:17:46.676Z,74.30
2019-04-05T04:20:35.906Z,74.30
2019-04-05T04:23:07.780Z,73.90
2019-04-05T04:25:38.997Z,73.70
2019-04-05T04:28:08.577Z,73.10
2019-04-05T04:30:38.154Z,73.40
2019-04-05T04:33:07.664Z,73.90
2019-04-05T04:35:37.364Z,74.20
2019-04-05T04:38:07.379Z,74.60
2019-04-05T04:40:37.573Z,74.40
2019-04-05T04:43:09.768Z,74.50
2019-04-05T04:45:39.377Z,74.40
2019-04-05T04:48:09.184Z,75.00
2019-04-05T04:50:39.378Z,74.80
2019-04-05T04:53:09.504Z,75.30
2019-04-05T04:55:40.193Z,75.60
2019-04-05T04:58:09.948Z,75.60
2019-04-05T05:00:39.313Z,75.80
2019-04-05T05:03:08.820Z,75.90
2019-04-05T05:05:39.851Z,75.80
2019-04-05T05:08:09.656Z,75.60
2019-04-05T05:10:42.480Z,75.20
2019-04-05T05:13:11.988Z,75.20
2019-04-05T05:15:42.488Z,75.10
2019-04-05T05:18:17.315Z,75.10
2019-04-05T05:20:50.110Z,75.10
2019-04-05T05:23:20.783Z,74.90
2019-04-05T05:25:55.676Z,74.60
2019-04-05T05:28:29.457Z,74.30
2019-04-05T05:30:59.445Z,74.40
2019-04-05T05:33:30.121Z,74.40
2019-04-05T05:36:05.470Z,74.30
2019-04-05T05:38:39.213Z,73.80
2019-04-05T05:41:10.879Z,73.40
2019-04-05T05:43:40.615Z,74.00
2019-04-05T05:46:10.194Z,74.10
2019-04-05T05:48:39.893Z,74.40
2019-04-05T05:51:09.797Z,74.40
2019-04-05T05:53:39.416Z,74.80
2019-04-05T05:56:10.773Z,75.60
2019-04-05T05:58:42.221Z,74.70
2019-04-05T06:01:15.302Z,74.30
2019-04-05T06:03:43.981Z,73.90
2019-04-05T06:06:14.207Z,73.50
2019-04-05T06:08:46.780Z,72.90
2019-04-05T06:11:16.201Z,72.40
2019-04-05T06:13:46.261Z,71.30
2019-04-05T06:16:15.722Z,72.30
2019-04-05T06:18:45.166Z,72.60
2019-04-05T06:21:16.243Z,72.80
2019-04-05T06:23:45.869Z,71.90
2019-04-05T06:26:15.334Z,72.30
2019-04-05T06:28:44.861Z,72.00
2019-04-05T06:31:16.289Z,71.60
2019-04-05T06:33:45.856Z,71.90
2019-04-05T06:36:16.246Z,71.80
2019-04-05T06:38:49.238Z,71.80
2019-04-05T06:41:17.849Z,71.70
2019-04-05T06:43:51.184Z,71.00
2019-04-05T06:46:20.535Z,70.60
2019-04-05T06:48:50.144Z,70.80
2019-04-05T06:51:19.576Z,70.70
2019-04-05T06:53:49.052Z,71.90
2019-04-05T06:56:24.778Z,71.50
2019-04-05T06:58:54.786Z,69.90
2019-04-05T07:01:26.988Z,68.70
2019-04-05T07:03:59.556Z,68.50
2019-04-05T07:06:31.400Z,68.90
2019-04-05T07:09:05.434Z,68.30
2019-04-05T07:11:39.308Z,68.10
2019-04-05T07:14:09.691Z,67.80
2019-04-05T07:16:50.151Z,68.00
2019-04-05T07:19:20.883Z,67.80
2019-04-05T07:21:50.313Z,67.30
2019-04-05T07:24:19.766Z,66.10
2019-04-05T07:26:49.229Z,65.10
2019-04-05T07:29:20.716Z,65.20
2019-04-05T07:31:51.141Z,64.00
2019-04-05T07:34:20.577Z,63.60
2019-04-05T07:36:49.992Z,64.00
2019-04-05T07:39:22.347Z,63.50
2019-04-05T07:41:51.778Z,62.50
2019-04-05T07:44:21.301Z,61.30
2019-04-05T07:46:50.789Z,60.00
2019-04-05T07:49:20.308Z,58.90
2019-04-05T07:51:52.899Z,58.50
2019-04-05T07:54:24.257Z,58.80
2019-04-05T07:56:53.691Z,59.40
2019-04-05T07:59:23.150Z,59.80
2019-04-05T08:01:52.598Z,58.90
2019-04-05T08:04:22.111Z,59.20
2019-04-05T08:06:51.693Z,59.10
2019-04-05T08:09:24.754Z,58.10
2019-04-05T08:11:54.853Z,58.10
2019-04-05T08:14:25.061Z,59.00
2019-04-05T08:17:00.244Z,58.60
2019-04-05T08:19:29.678Z,58.30
2019-04-05T08:22:00.130Z,58.50
2019-04-05T08:24:30.472Z,58.00
2019-04-05T08:26:59.914Z,58.20
2019-04-05T08:29:29.527Z,57.40
2019-04-05T08:31:58.976Z,56.50
2019-04-05T08:34:28.486Z,56.10
2019-04-05T08:36:57.920Z,54.80
2019-04-05T08:39:32.614Z,54.30
2019-04-05T08:42:02.094Z,52.70
2019-04-05T08:44:31.554Z,52.50
2019-04-05T08:47:01.020Z,53.20
2019-04-05T08:49:30.479Z,53.00
2019-04-05T08:52:00.183Z,53.00
2019-04-05T08:54:33.113Z,52.90
2019-04-05T08:57:03.271Z,52.80
2019-04-05T08:59:34.616Z,52.10
2019-04-05T09:02:04.253Z,52.00
2019-04-05T09:04:33.683Z,52.60
2019-04-05T09:07:03.130Z,50.20
2019-04-05T09:09:32.581Z,49.60
2019-04-05T09:12:02.984Z,49.40
2019-04-05T09:14:32.375Z,49.30
2019-04-05T09:17:01.834Z,48.70
2019-04-05T09:19:34.624Z,48.80
2019-04-05T09:22:04.128Z,48.50
2019-04-05T09:24:34.565Z,48.80
2019-04-05T09:27:05.974Z,48.00
2019-04-05T09:29:39.473Z,47.80
2019-04-05T09:32:08.933Z,47.60
2019-04-05T09:34:44.188Z,46.70
2019-04-05T09:37:13.685Z,47.70
2019-04-05T09:39:43.126Z,47.60
2019-04-05T09:42:12.574Z,46.80
2019-04-05T09:44:43.005Z,46.70
2019-04-05T09:47:13.550Z,46.80
2019-04-05T09:49:43.050Z,46.50
2019-04-05T09:52:12.485Z,47.00
2019-04-05T09:54:41.913Z,47.50
2019-04-05T09:57:11.356Z,48.60
2019-04-05T09:59:40.985Z,47.70
2019-04-05T10:02:10.590Z,47.30
2019-04-05T10:04:42.633Z,47.80
2019-04-05T10:07:13.643Z,48.00
2019-04-05T10:09:43.188Z,48.70
2019-04-05T10:12:13.562Z,49.10
2019-04-05T10:14:43.078Z,48.90
2019-04-05T10:17:12.541Z,48.40
2019-04-05T10:19:49.677Z,47.80
2019-04-05T10:22:15.880Z,47.60
2019-04-05T10:24:45.331Z,47.30
2019-04-05T10:27:14.777Z,47.40
2019-04-05T10:29:44.216Z,47.20
2019-04-05T10:32:13.666Z,46.80
2019-04-05T10:34:43.169Z,46.80
2019-04-05T10:37:12.739Z,46.40
2019-04-05T10:39:42.335Z,45.50
2019-04-05T10:42:32.849Z,44.90
2019-04-05T10:45:02.522Z,45.40
2019-04-05T10:47:32.170Z,45.40
2019-04-05T10:50:03.493Z,45.70
2019-04-05T10:52:32.659Z,45.50
2019-04-05T10:55:02.196Z,45.20
2019-04-05T10:57:32.082Z,45.00
2019-04-05T11:00:01.514Z,44.90
2019-04-05T11:02:33.613Z,43.20
2019-04-05T11:05:03.327Z,43.80
2019-04-05T11:07:34.909Z,43.30
2019-04-05T11:10:07.026Z,42.10
2019-04-05T11:12:39.869Z,42.00
2019-04-05T11:15:08.809Z,39.00
2019-04-05T11:17:42.573Z,37.50
2019-04-05T11:20:21.386Z,37.20
2019-04-05T11:22:46.375Z,37.60
2019-04-05T11:25:15.079Z,36.20
2019-04-05T11:27:44.510Z,35.80
2019-04-05T11:30:18.991Z,35.00
2019-04-05T11:32:48.527Z,35.10
2019-04-05T11:35:18.047Z,34.40
2019-04-05T11:37:49.911Z,32.70
2019-04-05T11:40:18.813Z,31.70
2019-04-05T11:42:49.121Z,32.20
2019-04-05T11:45:18.869Z,31.00
2019-04-05T11:47:48.831Z,30.10
2019-04-05T11:50:19.563Z,30.60
2019-04-05T11:52:48.916Z,29.60
2019-04-05T11:55:18.891Z,29.80
2019-04-05T11:57:48.460Z,29.20
2019-04-05T12:00:31.397Z,28.40
2019-04-05T12:03:09.686Z,27.70
2019-04-05T12:05:38.723Z,27.30
2019-04-05T12:08:09.056Z,27.50
2019-04-05T12:10:38.595Z,28.00
2019-04-05T12:13:08.033Z,28.30
2019-04-05T12:15:37.409Z,28.10
2019-04-05T12:18:06.784Z,28.00
2019-04-05T12:20:47.863Z,27.90
2019-04-05T12:23:09.181Z,28.50
2019-04-05T12:25:38.744Z,28.60
2019-04-05T12:28:10.594Z,28.90
2019-04-05T12:30:40.792Z,28.80
2019-04-05T12:33:14.152Z,30.90
2019-04-05T12:35:41.352Z,33.00
2019-04-05T12:38:10.808Z,32.70
2019-04-05T12:40:42.225Z,32.50
2019-04-05T12:43:13.601Z,32.80
2019-04-05T12:45:44.656Z,33.30
2019-04-05T12:48:16.089Z,33.40
2019-04-05T12:53:35.768Z,34.50
2019-04-05T12:56:05.808Z,34.80
2019-04-05T12:58:35.173Z,34.20
2019-04-05T13:01:04.763Z,34.00
2019-04-05T13:03:34.195Z,33.30
2019-04-05T13:08:56.801Z,32.30
2019-04-05T13:11:27.148Z,31.90
2019-04-05T13:13:58.143Z,30.60
2019-04-05T13:16:28.525Z,30.10
2019-04-05T13:19:00.426Z,30.00
2019-04-05T13:21:33.021Z,29.20
2019-04-05T13:24:04.037Z,29.90
2019-04-05T13:26:32.527Z,30.40
2019-04-05T13:29:07.844Z,31.10
2019-04-05T13:31:37.346Z,32.40
2019-04-05T13:34:06.769Z,32.40
2019-04-05T13:36:39.750Z,32.60
2019-04-05T13:39:09.561Z,33.10
2019-04-05T13:41:39.024Z,34.20
2019-04-05T13:44:08.493Z,34.80
2019-04-05T13:46:42.592Z,35.70
2019-04-05T13:49:11.015Z,36.50
2019-04-05T13:51:42.128Z,36.20
2019-04-05T13:54:11.707Z,36.10
2019-04-05T13:56:47.048Z,35.50
2019-04-05T13:59:19.565Z,34.80
2019-04-05T14:02:05.523Z,34.80
2019-04-05T14:04:25.985Z,35.40
2019-04-05T14:06:55.386Z,35.90
2019-04-05T14:09:24.845Z,36.40
2019-04-05T14:11:54.302Z,36.30
2019-04-05T14:14:23.773Z,36.80
2019-04-05T14:16:54.089Z,36.90
2019-04-05T14:19:23.831Z,37.30
2019-04-05T14:22:07.907Z,36.50
2019-04-05T14:24:28.449Z,36.60
2019-04-05T14:26:57.988Z,36.50
2019-04-05T14:29:27.640Z,35.00
2019-04-05T14:31:57.096Z,34.60
2019-04-05T14:34:26.528Z,35.50
2019-04-05T14:36:56.957Z,35.30
2019-04-05T14:39:26.378Z,35.60
2019-04-05T14:42:08.772Z,37.00
2019-04-05T14:44:26.978Z,36.20
2019-04-05T14:46:58.102Z,35.90
2019-04-05T14:49:30.405Z,35.30
2019-04-05T14:52:01.102Z,35.30
2019-04-05T14:54:32.449Z,34.60
2019-04-05T14:57:05.421Z,35.00
2019-04-05T14:59:34.233Z,35.40
2019-04-05T15:02:03.915Z,35.30
2019-04-05T15:04:33.454Z,35.30
2019-04-05T15:07:02.950Z,35.20
2019-04-05T15:09:32.311Z,35.60
2019-04-05T15:12:01.954Z,36.10
2019-04-05T15:14:31.466Z,36.00
2019-04-05T15:17:01.045Z,36.30
2019-04-05T15:19:31.539Z,37.20
2019-04-05T15:22:05.977Z,37.40
2019-04-05T15:24:34.019Z,37.30
2019-04-05T15:27:04.524Z,37.20
2019-04-05T15:29:37.453Z,36.50
2019-04-05T15:32:10.553Z,36.70
2019-04-05T15:34:41.640Z,37.00
2019-04-05T15:37:11.143Z,37.70
2019-04-05T15:39:44.264Z,37.20
2019-04-05T15:42:13.017Z,36.60
2019-04-05T15:44:48.394Z,37.00
2019-04-05T15:47:17.839Z,37.30
2019-04-05T15:49:47.257Z,37.30
2019-04-05T15:52:18.863Z,37.20
2019-04-05T15:54:48.670Z,37.40
2019-04-05T15:57:19.080Z,37.80
2019-04-05T15:59:53.578Z,37.50
2019-04-05T16:02:26.148Z,37.20
2019-04-05T16:04:55.590Z,36.80
2019-04-05T16:07:25.043Z,37.00
2019-04-05T16:09:54.567Z,37.70
2019-04-05T16:12:24.023Z,38.40
2019-04-05T16:14:54.428Z,38.60
2019-04-05T16:17:23.869Z,38.80
2019-04-05T16:19:53.352Z,38.30
2019-04-05T16:22:31.188Z,38.60
2019-04-05T16:24:53.841Z,39.30
2019-04-05T16:27:23.439Z,39.00
2019-04-05T16:29:53.970Z,38.20
2019-04-05T16:32:24.356Z,37.80
2019-04-05T16:34:57.843Z,38.50
2019-04-05T16:37:30.162Z,38.40
2019-04-05T16:39:59.596Z,39.00
2019-04-05T16:42:31.025Z,39.50
2019-04-05T16:45:01.702Z,40.00
2019-04-05T16:47:34.984Z,40.40
2019-04-05T16:50:09.506Z,40.50
2019-04-05T16:52:45.110Z,40.10
2019-04-05T16:55:12.502Z,40.20
2019-04-05T16:57:41.996Z,40.90
2019-04-05T17:00:14.219Z,41.10
2019-04-05T17:02:43.925Z,42.00
2019-04-05T17:05:14.128Z,43.20
2019-04-05T17:07:44.815Z,43.70
2019-04-05T17:10:14.621Z,44.40
2019-04-05T17:12:44.193Z,44.80
2019-04-05T17:15:14.090Z,45.30
2019-04-05T17:17:44.656Z,46.20
2019-04-05T17:20:14.310Z,46.70
2019-04-05T17:22:57.146Z,47.50
2019-04-05T17:25:16.242Z,47.10
2019-04-05T17:27:47.795Z,47.40
2019-04-05T17:30:18.544Z,48.00
2019-04-05T17:32:49.104Z,48.20
2019-04-05T17:35:19.517Z,48.80
2019-04-05T17:37:48.964Z,49.20
2019-04-05T17:40:18.412Z,49.50
2019-04-05T17:42:49.914Z,50.00
2019-04-05T17:45:19.490Z,50.10
2019-04-05T17:47:48.922Z,50.50
2019-04-05T17:50:30.771Z,50.90
2019-04-05T17:53:11.337Z,51.30
2019-04-05T17:55:32.619Z,51.50
2019-04-05T17:58:05.505Z,51.00
2019-04-05T18:00:37.443Z,51.40
2019-04-05T18:03:06.870Z,50.90
2019-04-05T18:05:36.329Z,51.20
2019-04-05T18:08:05.726Z,51.40
2019-04-05T18:10:35.213Z,51.80
2019-04-05T18:13:04.862Z,52.70
2019-04-05T18:15:35.310Z,52.50
2019-04-05T18:18:04.956Z,53.60
2019-04-05T18:20:35.277Z,53.60
2019-04-05T18:23:04.798Z,54.00
2019-04-05T18:25:35.330Z,54.40
2019-04-05T18:28:05.760Z,54.70
2019-04-05T18:30:37.173Z,55.10
2019-04-05T18:33:09.695Z,55.30
2019-04-05T18:35:39.220Z,55.50
2019-04-05T18:38:08.628Z,55.80
2019-04-05T18:40:40.623Z,56.10
2019-04-05T18:43:10.089Z,56.70
2019-04-05T18:45:39.610Z,57.10
2019-04-05T18:48:10.624Z,57.10
2019-04-05T18:50:41.073Z,57.10
2019-04-05T18:53:10.601Z,57.70
2019-04-05T18:55:40.073Z,58.20
2019-04-05T18:58:10.552Z,58.50
2019-04-05T19:00:40.010Z,58.20
2019-04-05T19:03:09.490Z,58.60
2019-04-05T19:05:38.977Z,58.80
2019-04-05T19:08:08.653Z,59.00
2019-04-05T19:10:39.949Z,59.30
2019-04-05T19:13:15.149Z,58.80
2019-04-05T19:15:44.635Z,59.10
2019-04-05T19:18:19.967Z,59.20
2019-04-05T19:20:50.324Z,59.00
2019-04-05T19:23:19.804Z,58.80
2019-04-05T19:25:53.924Z,59.50
2019-04-05T19:28:22.540Z,59.70
2019-04-05T19:48:34.899Z,61.80
2019-04-05T19:51:03.935Z,61.80
2019-04-05T19:53:33.406Z,61.60
2019-04-05T19:56:04.306Z,62.20
2019-04-05T19:58:33.813Z,62.10
2019-04-05T20:01:03.286Z,61.30
2019-04-05T20:03:32.879Z,61.90
2019-04-05T20:06:03.854Z,60.70
2019-04-05T20:08:33.268Z,61.20
2019-04-05T20:11:06.023Z,61.40
2019-04-05T20:13:40.535Z,61.20
2019-04-05T20:16:10.940Z,61.20
2019-04-05T20:18:40.411Z,61.90
2019-04-05T20:21:10.126Z,62.60
2019-04-05T20:23:47.416Z,63.20
2019-04-05T20:26:16.614Z,63.20
2019-04-05T20:28:46.104Z,63.10
2019-04-05T20:31:15.619Z,63.20
2019-04-05T20:33:45.056Z,64.20
2019-04-05T20:36:14.525Z,64.10
2019-04-05T20:38:43.975Z,63.80
2019-04-05T20:41:13.492Z,64.00
2019-04-05T20:43:42.880Z,63.70
2019-04-05T20:46:13.507Z,63.30
2019-04-05T20:48:43.861Z,63.60
2019-04-05T20:51:13.337Z,64.10
2019-04-05T20:53:42.807Z,64.70
2019-04-05T20:56:12.274Z,64.40
2019-04-05T20:58:41.705Z,63.90
2019-04-05T21:01:13.022Z,63.90
2019-04-05T21:03:42.444Z,64.80
2019-04-05T21:06:12.941Z,64.60
2019-04-05T21:08:42.476Z,65.00
2019-04-05T21:11:11.927Z,65.10
2019-04-05T21:13:42.357Z,64.70
2019-04-05T21:16:11.792Z,64.70
2019-04-05T21:18:41.235Z,65.20
2019-04-05T21:21:11.653Z,65.70
2019-04-05T21:23:41.099Z,65.60
2019-04-05T21:26:10.541Z,66.00
2019-04-05T21:28:39.928Z,66.10
2019-04-05T21:31:12.313Z,66.30
2019-04-05T21:33:41.783Z,65.90
2019-04-05T21:36:11.220Z,66.20
2019-04-05T21:38:40.589Z,66.60
2019-04-05T21:41:10.048Z,66.60
2019-04-05T21:43:39.626Z,66.90
2019-04-05T21:46:09.145Z,67.10
2019-04-05T21:48:41.097Z,67.50
2019-04-05T21:51:13.138Z,67.40
2019-04-05T21:53:42.585Z,67.30
2019-04-05T21:56:12.034Z,67.40
2019-04-05T21:58:41.464Z,66.90
2019-04-05T22:01:12.248Z,66.90
2019-04-05T22:03:41.836Z,67.00
2019-04-05T22:06:11.748Z,66.90
2019-04-05T22:08:41.271Z,67.20
2019-04-05T22:11:10.696Z,67.40
2019-04-05T22:13:43.425Z,67.50
2019-04-05T22:16:13.833Z,67.30
2019-04-05T22:18:43.322Z,67.80
2019-04-05T22:21:13.324Z,68.50
2019-04-05T22:23:42.690Z,68.00
2019-04-05T22:26:12.699Z,68.30
2019-04-05T22:28:42.606Z,68.60
2019-04-05T22:31:14.452Z,68.70
2019-04-05T22:33:43.913Z,68.80
2019-04-05T22:36:13.656Z,68.50
2019-04-05T22:38:43.079Z,68.70
2019-04-05T22:41:12.558Z,68.40
2019-04-05T22:43:42.026Z,68.40
2019-04-05T22:46:12.423Z,68.20
2019-04-05T22:48:43.065Z,68.20
2019-04-05T22:51:13.439Z,68.90
2019-04-05T22:53:42.889Z,68.80
2019-04-05T22:56:12.434Z,68.30
2019-04-05T22:58:41.927Z,68.40
2019-04-05T23:01:11.385Z,68.40
2019-04-05T23:03:45.880Z,68.90
2019-04-05T23:06:15.457Z,68.60
2019-04-05T23:08:45.865Z,69.10
2019-04-05T23:11:18.809Z,68.30
2019-04-05T23:13:50.739Z,69.00
2019-04-05T23:16:20.172Z,69.50
2019-04-05T23:18:49.740Z,69.10
2019-04-05T23:21:19.219Z,69.40
2019-04-05T23:23:49.143Z,69.20
2019-04-05T23:26:18.773Z,69.50
2019-04-05T23:28:49.763Z,69.90
2019-04-05T23:31:20.961Z,70.10
2019-04-05T23:33:53.405Z,70.60
2019-04-05T23:36:25.070Z,70.60
2019-04-05T23:38:56.442Z,69.30
2019-04-05T23:41:27.866Z,69.70
2019-04-05T23:43:57.343Z,69.80
2019-04-05T23:46:27.730Z,70.20
2019-04-05T23:48:59.323Z,69.60
2019-04-05T23:51:28.807Z,70.00
2019-04-05T23:53:58.288Z,70.70
2019-04-05T23:56:28.826Z,71.10
2019-04-05T23:59:01.009Z,71.20
